createdAt,value
2022-12-31T00:00:08.576Z,3.88
2022-12-31T00:01:13.197Z,3.89
2022-12-31T00:02:16.237Z,3.90
2022-12-31T00:03:19.157Z,3.89
2022-12-31T00:04:22.016Z,3.89
2022-12-31T00:05:24.766Z,3.87
2022-12-31T00:06:29.622Z,3.87
2022-12-31T00:08:37.355Z,3.86
2022-12-31T00:09:40.133Z,3.84
2022-12-31T00:10:42.835Z,3.88
2022-12-31T00:11:45.718Z,3.88
2022-12-31T00:12:48.888Z,3.87
2022-12-31T00:13:52.300Z,3.85
2022-12-31T00:14:54.993Z,3.83
2022-12-31T00:16:26.304Z,3.89
2022-12-31T00:17:29.984Z,3.89
2022-12-31T00:18:33.094Z,3.91
2022-12-31T00:19:35.857Z,3.90
2022-12-31T00:20:40.974Z,3.83
2022-12-31T00:21:44.338Z,3.77
2022-12-31T00:22:47.090Z,3.78
2022-12-31T00:23:50.963Z,3.79
2022-12-31T00:24:53.917Z,3.81
2022-12-31T00:25:56.727Z,3.80
2022-12-31T00:26:59.941Z,3.83
2022-12-31T00:28:04.852Z,3.84
2022-12-31T00:29:07.944Z,3.83
2022-12-31T00:30:11.586Z,3.79
2022-12-31T00:31:29.254Z,3.81
2022-12-31T00:32:32.068Z,3.79
2022-12-31T00:33:34.951Z,3.77
2022-12-31T00:34:38.619Z,3.75
2022-12-31T00:35:41.339Z,3.77
2022-12-31T00:36:46.143Z,3.76
2022-12-31T00:37:52.764Z,3.75
2022-12-31T00:38:57.565Z,3.74
2022-12-31T00:40:00.582Z,3.78
2022-12-31T00:41:04.132Z,3.77
2022-12-31T00:42:07.150Z,3.82
2022-12-31T00:43:09.961Z,3.83
2022-12-31T00:44:13.040Z,3.81
2022-12-31T00:45:16.437Z,3.75
2022-12-31T00:46:20.155Z,3.83
2022-12-31T00:47:24.705Z,3.79
2022-12-31T00:48:28.123Z,3.81
2022-12-31T00:49:30.871Z,3.81
2022-12-31T00:50:33.910Z,3.85
2022-12-31T00:51:36.827Z,3.89
2022-12-31T00:52:39.973Z,3.89
2022-12-31T00:53:43.222Z,3.87
2022-12-31T00:54:46.548Z,3.83
2022-12-31T00:55:50.156Z,3.85
2022-12-31T00:56:53.466Z,3.83
2022-12-31T00:57:56.248Z,3.81
2022-12-31T00:59:00.369Z,3.81
2022-12-31T01:00:03.345Z,3.77
2022-12-31T01:01:21.129Z,3.77
2022-12-31T01:02:24.148Z,3.79
2022-12-31T01:03:27.575Z,3.79
2022-12-31T01:04:30.522Z,3.80
2022-12-31T01:05:34.619Z,3.79
2022-12-31T01:06:39.503Z,3.79
2022-12-31T01:07:42.482Z,3.79
2022-12-31T01:08:47.677Z,3.78
2022-12-31T01:09:50.794Z,3.78
2022-12-31T01:11:12.484Z,3.75
2022-12-31T01:12:15.696Z,3.76
2022-12-31T01:13:18.547Z,3.79
2022-12-31T01:14:21.589Z,3.75
2022-12-31T01:15:24.345Z,3.75
2022-12-31T01:16:49.359Z,3.78
2022-12-31T01:17:52.618Z,3.77
2022-12-31T01:18:59.104Z,3.79
2022-12-31T01:20:01.882Z,3.76
2022-12-31T01:21:07.847Z,3.79
2022-12-31T01:22:10.959Z,3.77
2022-12-31T01:23:14.002Z,3.79
2022-12-31T01:24:17.672Z,3.80
2022-12-31T01:25:20.997Z,3.75
2022-12-31T01:26:23.837Z,3.81
2022-12-31T01:27:26.558Z,3.84
2022-12-31T01:28:31.412Z,3.84
2022-12-31T01:29:34.882Z,3.88
2022-12-31T01:30:40.495Z,3.85
2022-12-31T01:31:43.358Z,3.90
2022-12-31T01:32:46.587Z,3.84
2022-12-31T01:33:50.656Z,3.84
2022-12-31T01:34:53.316Z,3.80
2022-12-31T01:35:56.447Z,3.83
2022-12-31T01:36:59.165Z,3.81
2022-12-31T01:38:02.319Z,3.80
2022-12-31T01:39:08.056Z,3.80
2022-12-31T01:40:11.432Z,3.78
2022-12-31T01:41:18.143Z,3.80
2022-12-31T01:42:21.423Z,3.83
2022-12-31T01:43:24.219Z,3.83
2022-12-31T01:44:27.624Z,3.86
2022-12-31T01:45:30.479Z,3.84
2022-12-31T01:46:44.546Z,3.85
2022-12-31T01:47:52.194Z,3.84
2022-12-31T01:48:59.116Z,3.85
2022-12-31T01:50:13.711Z,3.80
2022-12-31T01:51:17.231Z,3.88
2022-12-31T01:52:29.544Z,3.85
2022-12-31T01:53:32.599Z,3.84
2022-12-31T01:54:42.546Z,3.84
2022-12-31T01:55:56.597Z,3.87
2022-12-31T01:56:59.652Z,3.89
2022-12-31T01:58:15.467Z,3.85
2022-12-31T01:59:20.739Z,3.81
2022-12-31T02:00:24.165Z,3.84
2022-12-31T02:01:32.296Z,3.85
2022-12-31T02:02:35.168Z,3.83
2022-12-31T02:03:38.995Z,3.82
2022-12-31T02:04:41.980Z,3.79
2022-12-31T02:05:54.154Z,3.74
2022-12-31T02:07:01.404Z,3.82
2022-12-31T02:08:06.178Z,3.81
2022-12-31T02:09:10.318Z,3.78
2022-12-31T02:10:13.664Z,3.77
2022-12-31T02:11:34.539Z,3.79
2022-12-31T02:12:37.686Z,3.79
2022-12-31T02:13:40.858Z,3.77
2022-12-31T02:14:50.700Z,3.78
2022-12-31T02:16:10.832Z,3.74
2022-12-31T02:17:38.034Z,3.70
2022-12-31T02:18:53.660Z,3.74
2022-12-31T02:20:13.520Z,3.70
2022-12-31T02:21:43.797Z,3.72
2022-12-31T02:22:52.396Z,3.74
2022-12-31T02:24:26.876Z,3.73
2022-12-31T02:26:06.870Z,3.69
2022-12-31T02:27:25.613Z,3.68
2022-12-31T02:29:03.457Z,3.70
2022-12-31T02:30:09.214Z,3.69
2022-12-31T02:31:23.016Z,3.70
2022-12-31T02:32:49.928Z,3.71
2022-12-31T02:33:56.744Z,3.69
2022-12-31T02:35:11.070Z,3.66
2022-12-31T02:36:20.817Z,3.69
2022-12-31T02:37:29.008Z,3.69
2022-12-31T02:38:36.266Z,3.71
2022-12-31T02:39:39.684Z,3.70
2022-12-31T02:40:43.800Z,3.72
2022-12-31T02:41:51.661Z,3.72
2022-12-31T02:42:55.738Z,3.72
2022-12-31T02:43:58.701Z,3.76
2022-12-31T02:45:01.904Z,3.73
2022-12-31T02:46:39.799Z,3.73
2022-12-31T02:47:57.151Z,3.71
2022-12-31T02:49:52.123Z,3.68
2022-12-31T02:50:57.826Z,3.71
2022-12-31T02:52:49.904Z,3.75
2022-12-31T02:54:30.345Z,3.77
2022-12-31T02:55:55.185Z,3.77
2022-12-31T02:57:18.839Z,3.79
2022-12-31T02:58:47.447Z,3.83
2022-12-31T03:00:20.748Z,3.82
2022-12-31T03:01:49.667Z,3.83
2022-12-31T03:02:54.160Z,3.86
2022-12-31T03:04:16.088Z,3.82
2022-12-31T03:05:24.177Z,3.82
2022-12-31T03:06:27.601Z,3.81
2022-12-31T03:07:33.304Z,3.77
2022-12-31T03:08:56.463Z,3.77
2022-12-31T03:09:59.987Z,3.72
2022-12-31T03:11:24.141Z,3.67
2022-12-31T03:12:48.456Z,3.71
2022-12-31T03:13:51.409Z,3.46
2022-12-31T03:14:54.432Z,3.64
2022-12-31T03:15:57.345Z,3.69
2022-12-31T03:17:01.102Z,3.70
2022-12-31T03:18:13.450Z,3.71
2022-12-31T03:19:36.313Z,3.75
2022-12-31T03:21:02.196Z,3.73
2022-12-31T03:22:39.057Z,3.72
2022-12-31T03:23:50.907Z,3.74
2022-12-31T03:25:18.684Z,3.73
2022-12-31T03:26:21.678Z,3.75
2022-12-31T03:27:25.657Z,3.79
2022-12-31T03:28:30.715Z,3.80
2022-12-31T03:29:33.905Z,3.73
2022-12-31T03:30:40.065Z,3.75
2022-12-31T03:31:42.829Z,3.76
2022-12-31T03:32:47.703Z,3.75
2022-12-31T03:33:51.017Z,3.75
2022-12-31T03:34:54.072Z,3.78
2022-12-31T03:35:56.796Z,3.77
2022-12-31T03:36:59.689Z,3.80
2022-12-31T03:38:04.521Z,3.80
2022-12-31T03:39:07.265Z,3.82
2022-12-31T03:40:12.546Z,3.83
2022-12-31T03:41:15.409Z,3.79
2022-12-31T03:42:18.169Z,3.80
2022-12-31T03:43:21.526Z,3.77
2022-12-31T03:44:24.300Z,3.76
2022-12-31T03:45:27.125Z,3.77
2022-12-31T03:46:30.537Z,3.73
2022-12-31T03:47:33.504Z,3.72
2022-12-31T03:48:37.684Z,3.66
2022-12-31T03:49:41.212Z,3.75
2022-12-31T03:50:44.053Z,3.75
2022-12-31T03:51:46.738Z,3.75
2022-12-31T03:52:49.830Z,3.73
2022-12-31T03:53:52.862Z,3.68
2022-12-31T03:54:56.135Z,3.67
2022-12-31T03:55:59.370Z,3.65
2022-12-31T03:57:02.287Z,3.66
2022-12-31T03:58:05.653Z,3.69
2022-12-31T03:59:08.808Z,3.68
2022-12-31T04:00:18.861Z,3.69
2022-12-31T04:01:24.525Z,3.66
2022-12-31T04:02:29.226Z,3.71
2022-12-31T04:03:32.814Z,3.71
2022-12-31T04:04:35.520Z,3.74
2022-12-31T04:05:38.852Z,3.74
2022-12-31T04:06:41.877Z,3.74
2022-12-31T04:07:45.068Z,3.74
2022-12-31T04:08:47.922Z,3.73
2022-12-31T04:09:51.220Z,3.72
2022-12-31T04:10:54.271Z,3.73
2022-12-31T04:11:57.733Z,3.69
2022-12-31T04:13:02.488Z,3.70
2022-12-31T04:14:05.967Z,3.69
2022-12-31T04:15:10.389Z,3.63
2022-12-31T04:16:13.398Z,3.63
2022-12-31T04:17:17.586Z,3.69
2022-12-31T04:18:20.395Z,3.70
2022-12-31T04:19:23.194Z,3.72
2022-12-31T04:20:25.959Z,3.73
2022-12-31T04:21:34.799Z,3.74
2022-12-31T04:22:38.794Z,3.76
2022-12-31T04:23:41.664Z,3.75
2022-12-31T04:24:45.621Z,3.70
2022-12-31T04:25:48.370Z,3.66
2022-12-31T04:26:51.176Z,3.64
2022-12-31T04:27:54.292Z,3.63
2022-12-31T04:28:58.086Z,3.68
2022-12-31T04:30:01.035Z,3.70
2022-12-31T04:31:04.426Z,3.69
2022-12-31T04:32:09.105Z,3.70
2022-12-31T04:33:12.145Z,3.73
2022-12-31T04:34:16.257Z,3.76
2022-12-31T04:35:19.096Z,3.77
2022-12-31T04:36:22.610Z,3.77
2022-12-31T04:37:25.480Z,3.79
2022-12-31T04:38:31.733Z,3.81
2022-12-31T04:39:35.052Z,3.82
2022-12-31T04:40:57.803Z,3.81
2022-12-31T04:42:01.158Z,3.83
2022-12-31T04:43:03.855Z,3.85
2022-12-31T04:44:07.430Z,3.86
2022-12-31T04:45:13.262Z,3.85
2022-12-31T04:46:18.733Z,3.84
2022-12-31T04:47:23.886Z,3.86
2022-12-31T04:48:27.266Z,3.83
2022-12-31T04:49:32.287Z,3.80
2022-12-31T04:50:35.143Z,3.84
2022-12-31T04:51:38.035Z,3.84
2022-12-31T04:52:43.051Z,3.82
2022-12-31T04:53:46.649Z,3.84
2022-12-31T04:54:50.045Z,3.86
2022-12-31T04:55:52.979Z,3.86
2022-12-31T04:56:55.998Z,3.86
2022-12-31T04:57:58.763Z,3.85
2022-12-31T04:59:01.532Z,3.85
2022-12-31T05:00:05.274Z,3.86
2022-12-31T05:01:08.728Z,3.88
2022-12-31T05:02:11.763Z,3.88
2022-12-31T05:03:15.216Z,3.85
2022-12-31T05:04:17.973Z,3.84
2022-12-31T05:05:21.088Z,3.84
2022-12-31T05:06:24.413Z,3.84
2022-12-31T05:07:27.290Z,3.81
2022-12-31T05:08:30.478Z,3.79
2022-12-31T05:09:33.489Z,3.75
2022-12-31T05:10:37.725Z,3.80
2022-12-31T05:11:40.671Z,3.79
2022-12-31T05:12:43.439Z,3.76
2022-12-31T05:13:46.793Z,3.76
2022-12-31T05:14:49.521Z,3.78
2022-12-31T05:15:53.144Z,3.76
2022-12-31T05:16:56.329Z,3.71
2022-12-31T05:17:59.175Z,3.75
2022-12-31T05:19:02.298Z,3.74
2022-12-31T05:20:06.483Z,3.69
2022-12-31T05:21:18.520Z,3.67
2022-12-31T05:22:30.177Z,3.63
2022-12-31T05:23:33.345Z,3.62
2022-12-31T05:24:36.619Z,3.56
2022-12-31T05:25:39.947Z,3.53
2022-12-31T05:26:43.193Z,3.52
2022-12-31T05:27:46.211Z,3.51
2022-12-31T05:28:49.187Z,3.47
2022-12-31T05:29:52.184Z,3.46
2022-12-31T05:30:55.701Z,3.45
2022-12-31T05:31:59.160Z,3.43
2022-12-31T05:33:01.942Z,3.43
2022-12-31T05:34:04.985Z,3.41
2022-12-31T05:35:07.997Z,3.41
2022-12-31T05:36:10.868Z,3.37
2022-12-31T05:37:14.481Z,3.39
2022-12-31T05:38:17.908Z,3.40
2022-12-31T05:39:20.669Z,3.42
2022-12-31T05:40:23.393Z,3.43
2022-12-31T05:41:26.399Z,3.45
2022-12-31T05:42:29.416Z,3.47
2022-12-31T05:43:32.246Z,3.46
2022-12-31T05:44:35.380Z,3.46
2022-12-31T05:45:38.250Z,3.42
2022-12-31T05:46:41.090Z,3.42
2022-12-31T05:47:45.425Z,3.44
2022-12-31T05:48:48.151Z,3.41
2022-12-31T05:49:51.437Z,3.43
2022-12-31T05:50:55.058Z,3.43
2022-12-31T05:51:57.799Z,3.43
2022-12-31T05:53:00.819Z,3.41
2022-12-31T05:54:04.497Z,3.40
2022-12-31T05:55:07.461Z,3.39
2022-12-31T05:56:10.859Z,3.39
2022-12-31T05:57:13.978Z,3.38
2022-12-31T05:58:17.678Z,3.39
2022-12-31T05:59:20.569Z,3.38
2022-12-31T06:00:23.853Z,3.46
2022-12-31T06:01:27.328Z,3.46
2022-12-31T06:02:30.132Z,3.49
2022-12-31T06:03:33.062Z,3.49
2022-12-31T06:04:36.220Z,3.47
2022-12-31T06:05:42.960Z,3.46
2022-12-31T06:06:46.040Z,3.46
2022-12-31T06:07:49.134Z,3.44
2022-12-31T06:08:52.557Z,3.45
2022-12-31T06:09:55.725Z,3.45
2022-12-31T06:10:58.502Z,3.47
2022-12-31T06:12:02.000Z,3.47
2022-12-31T06:13:04.705Z,3.48
2022-12-31T06:14:07.505Z,3.42
2022-12-31T06:15:10.790Z,3.47
2022-12-31T06:16:14.056Z,3.46
2022-12-31T06:17:17.695Z,3.46
2022-12-31T06:18:20.752Z,3.44
2022-12-31T06:19:23.575Z,3.44
2022-12-31T06:20:26.318Z,3.44
2022-12-31T06:21:29.981Z,3.43
2022-12-31T06:22:32.996Z,3.42
2022-12-31T06:23:35.760Z,3.42
2022-12-31T06:24:38.952Z,3.44
2022-12-31T06:25:42.171Z,3.42
2022-12-31T06:26:44.998Z,3.44
2022-12-31T06:27:48.467Z,3.45
2022-12-31T06:28:51.341Z,3.46
2022-12-31T06:29:54.399Z,3.45
2022-12-31T06:31:06.145Z,3.42
2022-12-31T06:32:12.465Z,3.38
2022-12-31T06:33:16.052Z,3.42
2022-12-31T06:34:18.896Z,3.43
2022-12-31T06:35:22.847Z,3.43
2022-12-31T06:36:27.212Z,3.43
2022-12-31T06:37:30.103Z,3.43
2022-12-31T06:38:36.754Z,3.44
2022-12-31T06:39:39.517Z,3.46
2022-12-31T06:40:42.725Z,3.48
2022-12-31T06:41:45.515Z,3.49
2022-12-31T06:42:52.266Z,3.51
2022-12-31T06:43:59.264Z,3.51
2022-12-31T06:45:02.264Z,3.53
2022-12-31T06:46:07.709Z,3.55
2022-12-31T06:47:11.414Z,3.53
2022-12-31T06:48:14.639Z,3.54
2022-12-31T06:49:18.622Z,3.54
2022-12-31T06:50:21.404Z,3.51
2022-12-31T06:51:25.690Z,3.49
2022-12-31T06:52:30.057Z,3.48
2022-12-31T06:53:33.163Z,3.46
2022-12-31T06:54:37.118Z,3.48
2022-12-31T06:55:40.189Z,3.47
2022-12-31T06:56:43.809Z,3.45
2022-12-31T06:57:47.080Z,3.48
2022-12-31T06:58:50.218Z,3.37
2022-12-31T06:59:53.630Z,3.41
2022-12-31T07:01:35.136Z,3.46
2022-12-31T07:03:05.652Z,3.46
2022-12-31T07:04:26.389Z,3.48
2022-12-31T07:05:44.416Z,3.49
2022-12-31T07:07:14.979Z,3.51
2022-12-31T07:08:55.358Z,3.52
2022-12-31T07:10:16.279Z,3.55
2022-12-31T07:11:29.227Z,3.54
2022-12-31T07:12:47.405Z,3.53
2022-12-31T07:14:23.895Z,3.54
2022-12-31T07:16:00.633Z,3.55
2022-12-31T07:17:06.893Z,3.55
2022-12-31T07:18:19.115Z,3.54
2022-12-31T07:19:40.518Z,3.59
2022-12-31T07:20:43.731Z,3.62
2022-12-31T07:21:49.715Z,3.65
2022-12-31T07:22:53.046Z,3.67
2022-12-31T07:23:56.226Z,3.70
2022-12-31T07:24:59.368Z,3.66
2022-12-31T07:28:28.521Z,3.74
2022-12-31T07:32:28.738Z,3.70
2022-12-31T07:33:58.219Z,3.71
2022-12-31T07:35:22.076Z,3.75
2022-12-31T07:36:50.317Z,3.77
2022-12-31T07:38:08.198Z,3.81
2022-12-31T07:39:16.504Z,3.82
2022-12-31T07:40:38.361Z,3.85
2022-12-31T07:41:59.907Z,3.89
2022-12-31T07:43:14.375Z,3.89
2022-12-31T07:44:54.753Z,3.80
2022-12-31T07:46:20.310Z,3.86
2022-12-31T07:47:28.303Z,3.84
2022-12-31T07:48:31.443Z,3.85
2022-12-31T07:49:34.968Z,3.85
2022-12-31T07:50:38.427Z,3.86
2022-12-31T07:51:42.129Z,3.85
2022-12-31T07:52:45.948Z,3.86
2022-12-31T07:53:48.827Z,3.86
2022-12-31T07:54:52.111Z,3.88
2022-12-31T07:56:00.640Z,3.86
2022-12-31T07:57:04.455Z,3.83
2022-12-31T07:58:38.749Z,3.88
2022-12-31T08:00:06.261Z,3.91
2022-12-31T08:01:33.447Z,3.95
2022-12-31T08:02:52.689Z,3.93
2022-12-31T08:04:07.382Z,3.95
2022-12-31T08:05:34.949Z,3.97
2022-12-31T08:07:09.255Z,3.98
2022-12-31T08:08:42.699Z,3.99
2022-12-31T08:09:53.834Z,4.01
2022-12-31T08:11:15.016Z,4.04
2022-12-31T08:12:21.152Z,4.07
2022-12-31T08:13:24.348Z,4.11
2022-12-31T08:14:29.235Z,4.10
2022-12-31T08:15:32.220Z,4.03
2022-12-31T08:16:35.734Z,4.11
2022-12-31T08:17:38.731Z,4.14
2022-12-31T08:18:42.390Z,4.15
2022-12-31T08:19:46.716Z,4.16
2022-12-31T08:21:13.730Z,4.18
2022-12-31T08:22:41.034Z,4.22
2022-12-31T08:24:18.295Z,4.25
2022-12-31T08:25:31.784Z,4.26
2022-12-31T08:27:00.555Z,4.34
2022-12-31T08:28:12.799Z,4.39
2022-12-31T08:29:43.343Z,4.42
2022-12-31T08:31:29.261Z,4.43
2022-12-31T08:32:36.835Z,4.45
2022-12-31T08:33:48.528Z,4.45
2022-12-31T08:34:59.889Z,4.44
2022-12-31T08:36:22.052Z,4.45
2022-12-31T08:37:42.959Z,4.47
2022-12-31T08:38:55.495Z,4.50
2022-12-31T08:40:28.003Z,4.47
2022-12-31T08:41:44.373Z,4.47
2022-12-31T08:42:59.031Z,4.48
2022-12-31T08:44:37.882Z,4.50
2022-12-31T08:45:51.203Z,4.54
2022-12-31T08:47:03.060Z,4.60
2022-12-31T08:48:11.564Z,4.62
2022-12-31T08:49:15.083Z,4.61
2022-12-31T08:50:19.678Z,4.63
2022-12-31T08:51:25.407Z,4.67
2022-12-31T08:52:28.514Z,4.69
2022-12-31T08:53:34.987Z,4.69
2022-12-31T08:54:38.166Z,4.69
2022-12-31T08:55:44.335Z,4.70
2022-12-31T08:57:09.070Z,4.70
2022-12-31T08:58:43.703Z,4.71
2022-12-31T09:00:19.089Z,4.72
2022-12-31T09:01:27.978Z,4.71
2022-12-31T09:02:56.163Z,4.67
2022-12-31T09:04:17.854Z,4.72
2022-12-31T09:05:26.355Z,4.74
2022-12-31T09:06:49.365Z,4.72
2022-12-31T09:08:20.921Z,4.76
2022-12-31T09:10:02.650Z,4.76
2022-12-31T09:11:36.879Z,4.74
2022-12-31T09:12:57.986Z,4.75
2022-12-31T09:14:03.706Z,4.67
2022-12-31T09:15:21.761Z,4.56
2022-12-31T09:16:30.881Z,4.60
2022-12-31T09:17:46.566Z,4.47
2022-12-31T09:18:49.367Z,4.48
2022-12-31T09:19:52.696Z,4.49
2022-12-31T09:20:56.121Z,4.46
2022-12-31T09:21:59.202Z,4.45
2022-12-31T09:23:03.235Z,4.43
2022-12-31T09:24:09.529Z,4.42
2022-12-31T09:25:15.745Z,4.42
2022-12-31T09:26:29.572Z,4.40
2022-12-31T09:27:47.140Z,4.44
2022-12-31T09:29:16.483Z,4.42
2022-12-31T09:30:19.908Z,4.41
2022-12-31T09:31:38.487Z,4.41
2022-12-31T09:33:16.792Z,4.42
2022-12-31T09:34:34.637Z,4.50
2022-12-31T09:35:52.536Z,4.52
2022-12-31T09:37:06.779Z,4.53
2022-12-31T09:38:26.931Z,4.51
2022-12-31T09:39:32.529Z,4.45
2022-12-31T09:41:05.308Z,4.46
2022-12-31T09:42:46.453Z,4.54
2022-12-31T09:44:20.461Z,4.46
2022-12-31T09:45:29.204Z,4.48
2022-12-31T09:46:51.488Z,4.40
2022-12-31T09:48:28.179Z,4.41
2022-12-31T09:50:16.240Z,4.47
2022-12-31T09:51:29.904Z,4.47
2022-12-31T09:52:55.541Z,4.51
2022-12-31T09:54:04.489Z,4.53
2022-12-31T09:55:32.191Z,4.46
2022-12-31T09:57:12.774Z,4.52
2022-12-31T09:58:43.217Z,4.56
2022-12-31T10:00:08.500Z,4.55
2022-12-31T10:01:42.788Z,4.56
2022-12-31T10:03:15.994Z,4.46
2022-12-31T10:04:52.611Z,4.49
2022-12-31T10:05:58.168Z,4.49
2022-12-31T10:07:33.475Z,4.47
2022-12-31T10:08:56.941Z,4.52
2022-12-31T10:10:13.762Z,4.50
2022-12-31T10:11:34.367Z,4.64
2022-12-31T10:12:56.854Z,4.56
2022-12-31T10:14:15.062Z,4.58
2022-12-31T10:15:44.290Z,4.66
2022-12-31T10:17:13.125Z,4.71
2022-12-31T10:18:37.154Z,4.77
2022-12-31T10:20:03.427Z,4.88
2022-12-31T10:21:24.944Z,4.68
2022-12-31T10:22:44.205Z,4.66
2022-12-31T10:24:24.088Z,4.51
2022-12-31T10:25:40.291Z,4.40
2022-12-31T10:26:53.259Z,4.41
2022-12-31T10:28:31.159Z,4.34
2022-12-31T10:29:59.392Z,4.31
2022-12-31T10:31:33.423Z,4.29
2022-12-31T10:33:03.803Z,4.24
2022-12-31T10:34:14.776Z,4.19
2022-12-31T10:35:41.293Z,4.22
2022-12-31T10:36:54.457Z,4.28
2022-12-31T10:38:00.263Z,4.31
2022-12-31T10:39:15.305Z,4.43
2022-12-31T10:40:51.108Z,4.37
2022-12-31T10:42:24.142Z,4.22
2022-12-31T10:43:34.313Z,4.37
2022-12-31T10:44:50.399Z,4.28
2022-12-31T10:46:16.220Z,4.33
2022-12-31T10:47:53.456Z,4.37
2022-12-31T10:49:11.851Z,4.37
2022-12-31T10:50:23.545Z,4.30
2022-12-31T10:51:30.045Z,4.30
2022-12-31T10:52:45.728Z,4.43
2022-12-31T10:54:09.897Z,4.42
2022-12-31T10:55:56.682Z,4.41
2022-12-31T10:57:15.272Z,4.47
2022-12-31T10:58:56.510Z,4.49
2022-12-31T11:00:12.669Z,4.45
2022-12-31T11:01:46.423Z,4.47
2022-12-31T11:03:02.038Z,4.38
2022-12-31T11:04:14.580Z,4.40
2022-12-31T11:06:12.116Z,4.41
2022-12-31T11:07:51.974Z,4.44
2022-12-31T11:09:18.938Z,4.48
2022-12-31T11:10:52.267Z,4.40
2022-12-31T11:12:17.067Z,4.42
2022-12-31T11:13:29.088Z,4.35
2022-12-31T11:15:00.357Z,4.39
2022-12-31T11:16:30.237Z,4.41
2022-12-31T11:17:54.911Z,4.45
2022-12-31T11:19:11.086Z,4.41
2022-12-31T11:20:25.964Z,4.46
2022-12-31T11:21:28.969Z,4.42
2022-12-31T11:22:46.257Z,4.37
2022-12-31T11:24:19.005Z,4.36
2022-12-31T11:25:28.441Z,4.40
2022-12-31T11:26:59.216Z,4.37
2022-12-31T11:28:23.240Z,4.32
2022-12-31T11:29:43.223Z,4.35
2022-12-31T11:30:49.137Z,4.35
2022-12-31T11:32:25.815Z,4.37
2022-12-31T11:34:10.642Z,4.39
2022-12-31T11:35:14.359Z,4.37
2022-12-31T11:36:35.188Z,4.33
2022-12-31T11:38:01.588Z,4.39
2022-12-31T11:39:31.564Z,4.39
2022-12-31T11:40:37.982Z,4.41
2022-12-31T11:41:52.741Z,4.45
2022-12-31T11:42:58.958Z,4.47
2022-12-31T11:44:30.190Z,4.48
2022-12-31T11:45:35.635Z,4.42
2022-12-31T11:47:06.589Z,4.45
2022-12-31T11:48:35.103Z,4.40
2022-12-31T11:50:10.508Z,4.42
2022-12-31T11:51:15.993Z,4.39
2022-12-31T11:52:44.953Z,4.33
2022-12-31T11:54:21.993Z,4.33
2022-12-31T11:55:30.564Z,4.33
2022-12-31T11:56:40.755Z,4.32
2022-12-31T11:57:50.182Z,4.32
2022-12-31T11:58:55.703Z,4.27
2022-12-31T12:00:12.961Z,4.28
2022-12-31T12:01:28.210Z,4.28
2022-12-31T12:02:37.915Z,4.34
2022-12-31T12:03:43.828Z,4.37
2022-12-31T12:07:02.790Z,4.35
2022-12-31T12:08:06.504Z,4.39
2022-12-31T12:12:41.952Z,4.36
2022-12-31T12:13:45.765Z,4.38
2022-12-31T12:14:55.356Z,4.44
2022-12-31T12:16:08.888Z,4.43
2022-12-31T12:21:30.826Z,4.60
2022-12-31T12:22:33.844Z,4.61
2022-12-31T12:25:59.675Z,4.70
2022-12-31T12:27:02.898Z,4.55
2022-12-31T12:30:29.612Z,4.64
2022-12-31T12:31:34.311Z,4.68
2022-12-31T12:35:00.597Z,4.72
2022-12-31T12:40:29.903Z,4.78
2022-12-31T12:41:36.373Z,4.83
2022-12-31T12:44:45.886Z,4.80
2022-12-31T12:45:54.381Z,4.78
2022-12-31T12:49:16.503Z,4.77
2022-12-31T12:50:23.436Z,4.77
2022-12-31T12:51:54.231Z,4.80
2022-12-31T12:53:08.215Z,4.87
2022-12-31T12:54:37.005Z,4.91
2022-12-31T12:55:49.903Z,4.90
2022-12-31T12:57:15.178Z,4.86
2022-12-31T12:58:56.776Z,4.83
2022-12-31T13:00:25.033Z,4.91
2022-12-31T13:01:57.858Z,4.91
2022-12-31T13:03:36.387Z,4.91
2022-12-31T13:05:09.005Z,4.91
2022-12-31T13:06:49.801Z,4.90
2022-12-31T13:08:14.588Z,4.95
2022-12-31T13:09:26.374Z,4.92
2022-12-31T13:10:29.274Z,4.92
2022-12-31T13:12:07.963Z,4.82
2022-12-31T13:13:27.631Z,4.95
2022-12-31T13:14:44.654Z,4.96
2022-12-31T13:16:12.898Z,4.96
2022-12-31T13:17:21.795Z,4.99
2022-12-31T13:18:42.940Z,4.98
2022-12-31T13:19:57.373Z,4.99
2022-12-31T13:21:32.654Z,5.00
2022-12-31T13:22:50.538Z,4.94
2022-12-31T13:24:10.092Z,4.97
2022-12-31T13:25:48.498Z,5.01
2022-12-31T13:27:04.688Z,4.97
2022-12-31T13:28:14.015Z,4.98
2022-12-31T13:29:24.716Z,5.00
2022-12-31T13:30:39.021Z,5.06
2022-12-31T13:31:43.188Z,5.03
2022-12-31T13:32:52.856Z,5.06
2022-12-31T13:34:05.059Z,5.08
2022-12-31T13:35:31.269Z,5.11
2022-12-31T13:36:39.756Z,5.14
2022-12-31T13:37:42.853Z,5.14
2022-12-31T13:38:51.448Z,5.11
2022-12-31T13:40:07.577Z,5.05
2022-12-31T13:41:17.198Z,5.09
2022-12-31T13:42:43.829Z,5.08
2022-12-31T13:44:12.302Z,5.09
2022-12-31T13:45:25.809Z,5.03
2022-12-31T13:46:28.683Z,5.00
2022-12-31T13:47:51.975Z,5.07
2022-12-31T13:48:59.976Z,5.05
2022-12-31T13:50:14.853Z,5.07
2022-12-31T13:51:24.318Z,5.06
2022-12-31T13:52:30.906Z,5.08
2022-12-31T13:53:43.826Z,5.08
2022-12-31T13:55:31.943Z,5.05
2022-12-31T13:56:38.084Z,5.04
2022-12-31T13:58:09.821Z,5.06
2022-12-31T13:59:17.004Z,5.08
2022-12-31T14:00:25.510Z,5.10
2022-12-31T14:01:34.117Z,5.10
2022-12-31T14:02:48.036Z,5.10
2022-12-31T14:04:06.831Z,5.12
2022-12-31T14:05:16.093Z,5.06
2022-12-31T14:06:38.284Z,5.07
2022-12-31T14:07:52.485Z,5.05
2022-12-31T14:08:56.457Z,5.01
2022-12-31T14:09:59.366Z,5.01
2022-12-31T14:11:18.001Z,5.02
2022-12-31T14:12:51.953Z,5.02
2022-12-31T14:14:00.648Z,4.98
2022-12-31T14:15:24.069Z,4.97
2022-12-31T14:16:41.435Z,4.97
2022-12-31T14:17:59.102Z,4.98
2022-12-31T14:19:31.600Z,4.94
2022-12-31T14:20:39.237Z,4.92
2022-12-31T14:22:26.423Z,4.90
2022-12-31T14:23:45.286Z,4.87
2022-12-31T14:24:51.813Z,4.85
2022-12-31T14:26:04.089Z,4.83
2022-12-31T14:27:15.120Z,4.80
2022-12-31T14:28:30.661Z,4.84
2022-12-31T14:30:07.569Z,4.85
2022-12-31T14:31:20.187Z,4.84
2022-12-31T14:33:00.996Z,4.83
2022-12-31T14:34:12.512Z,4.83
2022-12-31T14:35:52.339Z,4.81
2022-12-31T14:37:08.216Z,4.85
2022-12-31T14:38:26.241Z,4.85
2022-12-31T14:39:35.643Z,4.84
2022-12-31T14:40:41.610Z,4.83
2022-12-31T14:42:03.591Z,4.84
2022-12-31T14:43:22.243Z,4.84
2022-12-31T14:44:32.165Z,4.88
2022-12-31T14:45:55.986Z,4.90
2022-12-31T14:47:17.452Z,4.89
2022-12-31T14:48:41.937Z,4.87
2022-12-31T14:49:56.145Z,4.85
2022-12-31T14:51:02.683Z,4.80
2022-12-31T14:52:31.118Z,4.80
2022-12-31T14:53:37.300Z,4.78
2022-12-31T14:55:29.184Z,4.80
2022-12-31T14:56:47.089Z,4.76
2022-12-31T14:59:32.219Z,4.84
2022-12-31T15:00:52.725Z,4.85
2022-12-31T15:02:03.613Z,4.86
2022-12-31T15:03:15.274Z,4.84
2022-12-31T15:04:44.960Z,4.84
2022-12-31T15:05:54.894Z,4.82
2022-12-31T15:07:19.349Z,4.84
2022-12-31T15:08:50.100Z,4.78
2022-12-31T15:10:17.098Z,4.85
2022-12-31T15:11:44.164Z,4.86
2022-12-31T15:13:10.250Z,4.87
2022-12-31T15:14:38.728Z,4.86
2022-12-31T15:16:20.346Z,4.86
2022-12-31T15:17:49.237Z,4.86
2022-12-31T15:18:58.309Z,4.87
2022-12-31T15:20:34.282Z,4.88
2022-12-31T15:22:26.628Z,4.89
2022-12-31T15:23:46.878Z,4.78
2022-12-31T15:24:56.749Z,4.91
2022-12-31T15:26:06.969Z,4.88
2022-12-31T15:27:33.437Z,4.59
2022-12-31T15:28:47.682Z,4.95
2022-12-31T15:30:01.490Z,4.90
2022-12-31T15:31:20.335Z,4.93
2022-12-31T15:32:35.422Z,4.95
2022-12-31T15:33:56.340Z,4.93
2022-12-31T15:35:27.217Z,4.94
2022-12-31T15:36:35.955Z,4.94
2022-12-31T15:37:40.679Z,4.94
2022-12-31T15:38:43.783Z,4.92
2022-12-31T15:39:46.911Z,4.91
2022-12-31T15:40:52.151Z,4.91
2022-12-31T15:42:36.079Z,4.93
2022-12-31T15:43:24.339Z,4.90
2022-12-31T15:44:51.340Z,4.93
2022-12-31T15:45:57.750Z,4.96
2022-12-31T15:47:25.119Z,4.97
2022-12-31T15:48:33.893Z,4.96
2022-12-31T15:49:44.098Z,4.96
2022-12-31T15:50:51.341Z,4.96
2022-12-31T15:52:04.916Z,4.97
2022-12-31T15:53:08.256Z,4.97
2022-12-31T15:54:44.919Z,4.96
2022-12-31T15:55:54.303Z,4.91
2022-12-31T15:57:00.233Z,4.91
2022-12-31T15:58:11.764Z,4.90
2022-12-31T15:59:17.387Z,4.91
2022-12-31T16:00:23.258Z,4.86
2022-12-31T16:01:32.857Z,4.78
2022-12-31T16:02:37.339Z,4.83
2022-12-31T16:03:47.012Z,4.83
2022-12-31T16:04:50.707Z,4.86
2022-12-31T16:06:02.573Z,4.88
2022-12-31T16:07:05.890Z,4.86
2022-12-31T16:08:19.974Z,4.91
2022-12-31T16:09:30.717Z,4.92
2022-12-31T16:10:34.025Z,4.92
2022-12-31T16:11:40.653Z,4.92
2022-12-31T16:12:45.511Z,4.91
2022-12-31T16:13:52.694Z,4.89
2022-12-31T16:14:58.581Z,4.90
2022-12-31T16:16:07.515Z,4.88
2022-12-31T16:17:34.222Z,4.86
2022-12-31T16:18:40.069Z,4.78
2022-12-31T16:19:46.306Z,4.60
2022-12-31T16:20:49.406Z,4.75
2022-12-31T16:21:56.430Z,4.77
2022-12-31T16:23:03.498Z,4.77
2022-12-31T16:24:35.215Z,4.77
2022-12-31T16:25:45.490Z,4.76
2022-12-31T16:26:51.946Z,4.74
2022-12-31T16:27:55.821Z,4.83
2022-12-31T16:29:04.479Z,4.83
2022-12-31T16:30:22.536Z,4.84
2022-12-31T16:31:28.568Z,4.79
2022-12-31T16:32:37.448Z,4.86
2022-12-31T16:33:41.415Z,4.87
2022-12-31T16:34:45.762Z,4.83
2022-12-31T16:35:56.363Z,4.86